Time;durP1;ratioP1;P1;durP2;ratioP2;P2;SDS_P1;SDS_P2;PMS_P1;PMS_P2;Temp;Humidity;BMP_temperature;BMP_pressure;BME280_temperature;BME280_humidity;BME280_pressure;Samples;Min_cycle;Max_cycle;Signal;HPM_P1;HPM_P2
2022/11/19 00:00:15;;;;;;;25.55;15.50;;;-1.50;99.90;;;;;;2071692;28;20041;-72
2022/11/19 00:01:18;;;;;;;24.17;15.52;;;-1.50;99.90;;;;;;2071686;28;20033;-71
2022/11/19 00:02:19;;;;;;;25.92;15.65;;;-1.50;99.90;;;;;;2080099;28;20044;-70
2022/11/19 00:03:21;;;;;;;24.65;15.40;;;-1.50;99.90;;;;;;2079868;28;20057;-70
2022/11/19 00:04:22;;;;;;;24.95;15.38;;;-1.50;99.90;;;;;;2080444;28;20105;-70
2022/11/19 00:05:23;;;;;;;26.08;15.80;;;-1.50;99.90;;;;;;2080734;28;20544;-71
2022/11/19 00:06:26;;;;;;;25.88;15.05;;;-1.50;99.90;;;;;;2071928;28;20104;-70
2022/11/19 00:07:27;;;;;;;24.45;14.82;;;-1.50;99.90;;;;;;2072213;28;20048;-71
2022/11/19 00:08:27;;;;;;;24.75;15.20;;;-1.50;99.90;;;;;;2080526;28;20028;-70
2022/11/19 00:09:28;;;;;;;25.40;15.35;;;-1.60;99.90;;;;;;2079819;28;20082;-72
2022/11/19 00:10:29;;;;;;;26.58;16.30;;;-1.50;99.90;;;;;;2079834;28;20036;-69
2022/11/19 00:12:55;;;;;;;25.50;15.88;;;-1.50;99.90;;;;;;2080969;28;20122;-69
2022/11/19 00:13:55;;;;;;;27.45;15.48;;;-1.50;99.90;;;;;;2079691;28;20042;-72
2022/11/19 00:14:56;;;;;;;24.40;15.25;;;-1.50;99.90;;;;;;2080086;28;20026;-71
2022/11/19 00:16:23;;;;;;;27.95;15.73;;;-1.50;99.90;;;;;;2080695;28;20036;-71
2022/11/19 00:17:24;;;;;;;25.33;14.75;;;-1.60;99.90;;;;;;2079699;28;20037;-72
2022/11/19 00:18:25;;;;;;;25.33;15.23;;;-1.60;99.90;;;;;;2080126;28;20104;-70
2022/11/19 00:19:25;;;;;;;26.58;15.32;;;-1.60;99.90;;;;;;2081195;28;20021;-71
2022/11/19 00:20:27;;;;;;;23.77;15.27;;;-1.70;99.90;;;;;;2072369;28;20026;-71
2022/11/19 00:21:28;;;;;;;25.73;15.63;;;-1.70;99.90;;;;;;2072197;28;20053;-71
2022/11/19 00:22:29;;;;;;;25.58;15.25;;;-1.80;99.90;;;;;;2081118;28;20021;-71
2022/11/19 00:23:29;;;;;;;23.75;14.65;;;-1.80;99.90;;;;;;2080992;28;20032;-71
2022/11/19 00:24:30;;;;;;;28.88;16.33;;;-1.80;99.90;;;;;;2081055;28;20429;-71
2022/11/19 00:25:31;;;;;;;24.35;14.48;;;-1.80;99.90;;;;;;2081373;28;20016;-71
2022/11/19 00:26:32;;;;;;;26.25;15.90;;;-1.80;99.90;;;;;;2080909;28;20105;-72
2022/11/19 00:27:32;;;;;;;24.85;15.73;;;-1.90;99.90;;;;;;2080466;28;20448;-71
2022/11/19 00:28:34;;;;;;;26.80;15.52;;;-1.90;99.90;;;;;;2080371;28;20032;-69
2022/11/19 00:29:37;;;;;;;26.05;16.20;;;-1.90;99.90;;;;;;2081118;28;20499;-70
2022/11/19 00:30:38;;;;;;;26.90;15.57;;;-1.80;99.90;;;;;;2080881;28;20132;-70
2022/11/19 00:31:39;;;;;;;25.75;15.73;;;-1.80;99.90;;;;;;2080338;28;20022;-70
2022/11/19 00:32:39;;;;;;;28.42;17.23;;;-1.90;99.90;;;;;;2080341;28;20030;-72
2022/11/19 00:33:42;;;;;;;27.58;16.17;;;-1.90;99.90;;;;;;2080702;28;20029;-70
2022/11/19 00:34:42;;;;;;;30.17;16.90;;;-1.90;99.90;;;;;;2079889;28;20642;-70
2022/11/19 00:35:43;;;;;;;25.55;16.02;;;-1.90;99.90;;;;;;2080114;28;20037;-71
2022/11/19 00:36:44;;;;;;;25.60;15.25;;;-1.90;99.90;;;;;;2080665;28;20032;-70
2022/11/19 00:37:44;;;;;;;27.20;16.15;;;-1.90;99.90;;;;;;2079840;28;20125;-70
2022/11/19 00:38:45;;;;;;;27.20;15.93;;;-1.90;99.90;;;;;;2079738;28;20511;-70
2022/11/19 00:39:45;;;;;;;26.10;15.88;;;-1.90;99.90;;;;;;2079715;28;20364;-69
2022/11/19 00:40:46;;;;;;;23.30;15.05;;;-1.90;99.90;;;;;;2079279;28;20095;-71
2022/11/19 00:41:47;;;;;;;26.02;15.60;;;-2.00;99.90;;;;;;2080359;28;20064;-70
2022/11/19 00:43:45;;;;;;;25.65;15.73;;;-2.00;99.90;;;;;;2080283;28;20033;-70
2022/11/19 00:44:08;;;;;;;23.55;15.27;;;-2.00;99.90;;;;;;2080203;28;20108;-70
2022/11/19 00:45:09;;;;;;;25.38;16.40;;;-2.00;99.90;;;;;;2080316;28;20033;-71
2022/11/19 00:46:10;;;;;;;25.50;15.57;;;-2.00;99.90;;;;;;2079654;28;20033;-71
2022/11/19 00:47:11;;;;;;;24.50;15.38;;;-2.10;99.90;;;;;;2079643;28;20392;-70
2022/11/19 00:48:12;;;;;;;24.60;15.27;;;-2.10;99.90;;;;;;2079942;28;20026;-70
2022/11/19 00:49:12;;;;;;;25.92;15.52;;;-2.10;99.90;;;;;;2071494;28;20038;-71
2022/11/19 00:50:13;;;;;;;25.70;15.77;;;-2.10;99.90;;;;;;2071420;28;20034;-70
2022/11/19 00:51:15;;;;;;;26.85;16.15;;;-2.10;99.90;;;;;;2079904;28;20041;-70
2022/11/19 00:52:16;;;;;;;26.88;16.02;;;-2.10;99.90;;;;;;2079719;28;20021;-70
2022/11/19 00:53:16;;;;;;;29.65;16.40;;;-2.10;99.90;;;;;;2081151;28;20033;-71
2022/11/19 00:54:17;;;;;;;26.80;15.55;;;-2.10;99.90;;;;;;2082419;28;20063;-71
2022/11/19 00:55:18;;;;;;;27.63;16.48;;;-2.10;99.90;;;;;;2084934;28;20083;-70
2022/11/19 00:56:20;;;;;;;27.17;16.42;;;-2.10;99.90;;;;;;2085371;28;20069;-71
2022/11/19 00:57:21;;;;;;;28.20;15.88;;;-2.10;99.90;;;;;;2085528;28;20041;-70
2022/11/19 00:58:22;;;;;;;23.70;14.88;;;-2.10;99.90;;;;;;2087338;28;20076;-71
2022/11/19 00:59:22;;;;;;;25.67;15.68;;;-2.10;99.90;;;;;;2085241;28;20021;-71
2022/11/19 01:00:23;;;;;;;25.98;15.60;;;-2.20;99.90;;;;;;2076418;28;20037;-70
2022/11/19 01:01:25;;;;;;;25.48;16.27;;;-2.20;99.90;;;;;;2078283;28;20022;-71
2022/11/19 01:02:25;;;;;;;27.13;16.15;;;-2.20;99.90;;;;;;2081664;28;20048;-70
2022/11/19 01:03:26;;;;;;;25.50;15.30;;;-2.20;99.90;;;;;;2080645;28;20534;-70
2022/11/19 01:04:27;;;;;;;27.63;16.08;;;-2.20;99.90;;;;;;2079808;28;20031;-70
2022/11/19 01:05:28;;;;;;;23.55;14.90;;;-2.20;99.90;;;;;;2079910;28;20025;-70
2022/11/19 01:06:29;;;;;;;26.35;15.95;;;-2.20;99.90;;;;;;2080306;28;20029;-68
2022/11/19 01:07:29;;;;;;;26.25;16.35;;;-2.30;99.90;;;;;;2080437;28;20049;-69
2022/11/19 01:08:30;;;;;;;26.40;16.15;;;-2.30;99.90;;;;;;2079965;28;20494;-69
2022/11/19 01:09:31;;;;;;;29.63;16.90;;;-2.30;99.90;;;;;;2079935;28;20088;-71
2022/11/19 01:10:34;;;;;;;27.02;17.05;;;-2.30;99.90;;;;;;2080183;28;20048;-71
2022/11/19 01:11:36;;;;;;;31.85;18.15;;;-2.30;99.90;;;;;;2080163;28;20060;-70
2022/11/19 01:13:33;;;;;;;33.25;17.85;;;-2.30;99.90;;;;;;2080387;28;20037;-71
2022/11/19 01:13:59;;;;;;;32.05;17.02;;;-2.30;99.90;;;;;;2080151;28;20068;-71
2022/11/19 01:15:00;;;;;;;37.72;19.00;;;-2.40;99.90;;;;;;2080459;28;20494;-71
2022/11/19 01:16:09;;;;;;;35.92;19.15;;;-2.40;99.90;;;;;;2080430;28;20026;-70
2022/11/19 01:17:10;;;;;;;38.03;18.23;;;-2.40;99.90;;;;;;2080629;28;20029;-70
2022/11/19 01:18:11;;;;;;;33.53;16.92;;;-2.40;99.90;;;;;;2079795;28;20699;-70
2022/11/19 01:19:15;;;;;;;34.03;17.92;;;-2.40;99.90;;;;;;2079465;28;20034;-70
2022/11/19 01:20:15;;;;;;;39.67;18.15;;;-2.40;99.90;;;;;;2080451;28;20071;-69
2022/11/19 01:21:18;;;;;;;38.90;17.60;;;-2.40;99.90;;;;;;2080007;28;20025;-69
2022/11/19 01:22:18;;;;;;;43.22;19.48;;;-2.40;99.90;;;;;;2080347;28;20029;-70
2022/11/19 01:23:19;;;;;;;40.20;18.70;;;-2.40;99.90;;;;;;2079696;28;20500;-69
2022/11/19 01:24:20;;;;;;;46.75;19.85;;;-2.40;99.90;;;;;;2079395;28;20393;-69
2022/11/19 01:25:21;;;;;;;48.42;20.23;;;-2.40;99.90;;;;;;2080409;28;20155;-70
2022/11/19 01:26:22;;;;;;;41.50;18.48;;;-2.40;99.90;;;;;;2080009;28;20025;-70
2022/11/19 01:27:23;;;;;;;41.08;18.40;;;-2.40;99.90;;;;;;2080004;28;20185;-69
2022/11/19 01:28:23;;;;;;;35.08;17.60;;;-2.40;99.90;;;;;;2079642;28;20664;-69
2022/11/19 01:29:24;;;;;;;34.50;16.30;;;-2.40;99.90;;;;;;2079346;28;20392;-70
2022/11/19 01:30:25;;;;;;;31.83;15.98;;;-2.40;99.90;;;;;;2080412;28;20013;-70
2022/11/19 01:31:28;;;;;;;30.35;16.45;;;-2.40;99.90;;;;;;2080067;28;20030;-70
2022/11/19 01:32:29;;;;;;;32.35;17.45;;;-2.40;99.90;;;;;;2071195;28;20120;-70
2022/11/19 01:33:29;;;;;;;30.05;16.58;;;-2.40;99.90;;;;;;2071378;28;20042;-69
2022/11/19 01:34:30;;;;;;;31.58;17.17;;;-2.40;99.90;;;;;;2079993;28;20032;-69
2022/11/19 01:35:30;;;;;;;30.95;16.52;;;-2.40;99.90;;;;;;2080354;28;20040;-70
2022/11/19 01:36:31;;;;;;;28.92;16.27;;;-2.40;99.90;;;;;;2080117;28;20033;-69
2022/11/19 01:37:32;;;;;;;31.00;16.38;;;-2.40;99.90;;;;;;2080260;28;20100;-69
2022/11/19 01:38:32;;;;;;;29.05;15.80;;;-2.50;99.90;;;;;;2080022;28;20097;-71
2022/11/19 01:39:33;;;;;;;28.95;16.13;;;-2.50;99.90;;;;;;2080053;28;20105;-69
2022/11/19 01:40:42;;;;;;;27.92;16.40;;;-2.50;99.90;;;;;;2079571;28;20064;-70
2022/11/19 01:41:43;;;;;;;27.77;15.95;;;-2.50;99.90;;;;;;2079813;28;20026;-70
2022/11/19 01:42:49;;;;;;;29.00;16.38;;;-2.50;99.90;;;;;;2080148;28;20036;-70
2022/11/19 01:43:55;;;;;;;29.63;15.98;;;-2.50;99.90;;;;;;2080005;28;20029;-69
2022/11/19 01:45:01;;;;;;;29.27;16.17;;;-2.40;99.90;;;;;;2079647;28;20088;-70
2022/11/19 01:46:02;;;;;;;29.10;16.45;;;-2.50;99.90;;;;;;2080302;28;20025;-70
2022/11/19 01:47:02;;;;;;;26.15;15.48;;;-2.50;99.90;;;;;;2080789;28;20048;-71
2022/11/19 01:48:06;;;;;;;27.45;15.82;;;-2.50;99.90;;;;;;2080628;28;20025;-72
2022/11/19 01:49:16;;;;;;;29.25;16.52;;;-2.50;99.90;;;;;;2080381;28;20115;-71
2022/11/19 01:50:17;;;;;;;28.30;16.20;;;-2.50;99.90;;;;;;2080290;28;20095;-70
2022/11/19 01:51:37;;;;;;;27.23;16.02;;;-2.60;99.90;;;;;;2079800;28;20033;-70
2022/11/19 01:52:41;;;;;;;28.40;15.55;;;-2.60;99.90;;;;;;2079672;28;20075;-69
2022/11/19 01:53:43;;;;;;;26.42;15.73;;;-2.60;99.90;;;;;;2079174;28;20053;-69
2022/11/19 01:54:49;;;;;;;28.42;16.40;;;-2.60;99.90;;;;;;2079951;28;20037;-71
2022/11/19 01:55:50;;;;;;;26.65;15.70;;;-2.60;99.90;;;;;;2079784;28;20404;-70
2022/11/19 01:56:56;;;;;;;27.13;15.68;;;-2.60;99.90;;;;;;2080197;28;20025;-68
2022/11/19 01:58:00;;;;;;;24.13;15.02;;;-2.60;99.90;;;;;;2079788;28;20141;-71
2022/11/19 01:59:10;;;;;;;25.35;15.27;;;-2.60;99.90;;;;;;2079576;28;20040;-69
2022/11/19 02:00:11;;;;;;;26.73;15.85;;;-2.60;99.90;;;;;;2079973;28;20026;-69
2022/11/19 02:01:14;;;;;;;24.80;14.80;;;-2.60;99.90;;;;;;2079720;28;20045;-70
2022/11/19 02:02:16;;;;;;;26.42;15.50;;;-2.60;99.90;;;;;;2080377;28;20037;-70
2022/11/19 02:03:17;;;;;;;25.65;15.57;;;-2.60;99.90;;;;;;2079989;28;20033;-70
2022/11/19 02:04:20;;;;;;;26.88;15.73;;;-2.60;99.90;;;;;;2079198;28;20044;-70
2022/11/19 02:05:21;;;;;;;25.52;15.15;;;-2.60;99.90;;;;;;2079499;28;20108;-70
2022/11/19 02:06:22;;;;;;;26.20;15.45;;;-2.60;99.90;;;;;;2079819;28;20037;-70
2022/11/19 02:07:28;;;;;;;26.60;16.10;;;-2.60;99.90;;;;;;2079219;28;20108;-71
2022/11/19 02:08:37;;;;;;;27.65;16.13;;;-2.60;99.90;;;;;;2078990;28;20056;-71
2022/11/19 02:09:39;;;;;;;27.83;16.38;;;-2.60;99.90;;;;;;2079212;28;20021;-70
2022/11/19 02:10:57;;;;;;;26.60;16.65;;;-2.60;99.90;;;;;;2079167;28;20127;-70
2022/11/19 02:12:19;;;;;;;27.85;15.60;;;-2.60;99.90;;;;;;2079867;28;20076;-70
2022/11/19 02:13:38;;;;;;;26.42;15.55;;;-2.60;99.90;;;;;;2079787;28;20504;-70
2022/11/19 02:14:53;;;;;;;30.65;16.65;;;-2.60;99.90;;;;;;2079564;28;20034;-70
2022/11/19 02:16:03;;;;;;;27.67;16.05;;;-2.60;99.90;;;;;;2079185;28;20041;-70
2022/11/19 02:17:08;;;;;;;27.20;15.85;;;-2.70;99.90;;;;;;2072569;28;20037;-70
2022/11/19 02:18:21;;;;;;;26.95;16.63;;;-2.70;99.90;;;;;;2079547;28;20418;-71
2022/11/19 02:19:22;;;;;;;26.48;16.13;;;-2.70;99.90;;;;;;2080257;28;20032;-70
2022/11/19 02:20:40;;;;;;;28.33;16.73;;;-2.70;99.90;;;;;;2079969;28;20032;-70
2022/11/19 02:22:03;;;;;;;28.90;16.85;;;-2.80;99.90;;;;;;2080388;28;20108;-70
2022/11/19 02:23:24;;;;;;;29.40;16.80;;;-2.80;99.90;;;;;;2080203;28;20175;-72
2022/11/19 02:24:43;;;;;;;32.45;17.92;;;-2.80;99.90;;;;;;2080206;28;20571;-72
2022/11/19 02:26:13;;;;;;;28.83;16.75;;;-2.80;99.90;;;;;;2080073;28;20033;-70
2022/11/19 02:27:43;;;;;;;28.50;16.45;;;-2.80;99.90;;;;;;2080405;28;20534;-69
2022/11/19 02:29:25;;;;;;;28.93;16.47;;;-2.80;99.90;;;;;;2079689;28;20592;-71
2022/11/19 02:30:33;;;;;;;29.13;17.02;;;-2.80;99.90;;;;;;2077528;28;20275;-71
2022/11/19 02:31:38;;;;;;;29.65;16.65;;;-2.80;99.90;;;;;;2080270;28;20480;-71
2022/11/19 02:33:08;;;;;;;27.15;16.17;;;-2.80;99.90;;;;;;2080140;28;20060;-71
2022/11/19 02:34:22;;;;;;;28.60;16.38;;;-2.80;99.90;;;;;;2080037;28;20485;-70
2022/11/19 02:35:41;;;;;;;28.75;16.67;;;-2.80;99.90;;;;;;2081119;28;20030;-70
2022/11/19 02:36:58;;;;;;;31.00;17.63;;;-2.80;99.90;;;;;;2080312;28;20072;-70
2022/11/19 02:38:08;;;;;;;29.33;16.60;;;-2.90;99.90;;;;;;2080383;28;20029;-70
2022/11/19 02:39:16;;;;;;;31.27;17.10;;;-2.90;99.90;;;;;;2080412;28;20035;-69
2022/11/19 02:40:27;;;;;;;30.63;17.90;;;-2.90;99.90;;;;;;2080503;28;20075;-71
2022/11/19 02:41:37;;;;;;;29.20;17.20;;;-2.90;99.90;;;;;;2080109;28;20489;-70
2022/11/19 02:42:52;;;;;;;29.25;17.15;;;-2.90;99.90;;;;;;2080996;28;20017;-70
2022/11/19 02:44:57;;;;;;;31.92;17.50;;;-2.90;99.90;;;;;;2080231;28;20048;-71
2022/11/19 02:45:50;;;;;;;28.65;16.73;;;-2.90;99.90;;;;;;2080230;28;20025;-71
2022/11/19 02:46:52;;;;;;;31.10;16.95;;;-2.90;99.90;;;;;;2081022;28;20041;-71
2022/11/19 02:48:18;;;;;;;28.98;16.48;;;-2.90;99.90;;;;;;2082107;28;20049;-70
2022/11/19 02:49:23;;;;;;;30.63;17.10;;;-2.90;99.90;;;;;;2082314;28;20037;-71
2022/11/19 02:50:32;;;;;;;31.42;17.40;;;-2.80;99.90;;;;;;2081808;28;20040;-70
2022/11/19 02:51:33;;;;;;;29.43;16.93;;;-2.90;99.90;;;;;;2081282;28;20029;-71
2022/11/19 02:52:35;;;;;;;27.15;16.27;;;-2.90;99.90;;;;;;2080346;28;20322;-70
2022/11/19 02:53:36;;;;;;;29.35;16.92;;;-2.90;99.90;;;;;;2080345;28;20036;-71
2022/11/19 02:54:37;;;;;;;33.00;17.55;;;-2.90;99.90;;;;;;2080259;28;20037;-72
2022/11/19 02:55:38;;;;;;;28.10;16.55;;;-2.90;99.90;;;;;;2080458;28;20507;-71
2022/11/19 02:56:47;;;;;;;28.65;16.73;;;-2.90;99.90;;;;;;2080601;28;20143;-71
2022/11/19 02:58:00;;;;;;;28.27;15.98;;;-2.90;99.90;;;;;;2081578;28;20530;-70
2022/11/19 03:04:29;;;;;;;28.17;15.85;;;-3.00;99.90;;;;;;2081661;28;20025;-72
2022/11/19 03:05:33;;;;;;;29.30;16.83;;;-3.00;99.90;;;;;;2081209;28;20479;-72
2022/11/19 03:06:34;;;;;;;29.08;16.88;;;-3.00;99.90;;;;;;2081439;28;20096;-71
2022/11/19 03:07:35;;;;;;;29.40;17.48;;;-3.00;99.90;;;;;;2081701;28;20038;-71
2022/11/19 03:08:35;;;;;;;31.60;17.42;;;-3.00;99.90;;;;;;2080918;28;20037;-71
2022/11/19 03:09:45;;;;;;;27.05;15.95;;;-3.00;99.90;;;;;;2080775;28;20025;-71
2022/11/19 03:11:09;;;;;;;28.75;17.13;;;-3.00;99.90;;;;;;2080883;28;20037;-70
2022/11/19 03:12:25;;;;;;;35.70;18.27;;;-3.00;99.90;;;;;;2080431;28;20029;-71
2022/11/19 03:16:40;;;;;;;38.40;19.35;;;-3.00;99.90;;;;;;2076594;28;20052;-72
2022/11/19 03:17:41;;;;;;;37.28;19.27;;;-3.00;99.90;;;;;;2080557;28;20042;-71
2022/11/19 03:18:51;;;;;;;34.45;18.95;;;-3.00;99.90;;;;;;2081046;28;20071;-71
2022/11/19 03:20:11;;;;;;;;;;;-3.00;99.90;;;;;;2081471;28;20026;-70
2022/11/19 03:21:21;;;;;;;36.83;19.30;;;-3.10;99.90;;;;;;2080598;28;19913;-71
2022/11/19 03:22:39;;;;;;;37.83;19.80;;;-3.10;99.90;;;;;;2080949;28;20029;-71
2022/11/19 03:23:45;;;;;;;38.78;20.27;;;-3.10;99.90;;;;;;2081492;28;20033;-71
2022/11/19 03:25:11;;;;;;;59.05;26.02;;;-3.10;99.90;;;;;;2082160;28;20790;-71
2022/11/19 03:26:26;;;;;;;53.80;24.30;;;-3.10;99.90;;;;;;2088081;28;20030;-71
2022/11/19 03:27:40;;;;;;;49.45;23.90;;;-3.10;99.90;;;;;;2082237;28;20025;-71
2022/11/19 03:28:41;;;;;;;51.00;24.35;;;-3.10;99.90;;;;;;2081251;28;20025;-71
2022/11/19 03:29:48;;;;;;;53.65;25.42;;;-3.10;99.90;;;;;;2080928;28;20029;-71
2022/11/19 03:30:49;;;;;;;56.47;26.80;;;-3.10;99.90;;;;;;2080174;28;20036;-71
2022/11/19 03:31:57;;;;;;;58.28;25.73;;;-3.10;99.90;;;;;;2080292;28;20018;-71
2022/11/19 03:33:08;;;;;;;57.00;26.23;;;-3.10;99.90;;;;;;2081211;28;20033;-71
2022/11/19 03:34:15;;;;;;;57.78;25.00;;;-3.20;99.90;;;;;;2080863;28;20033;-71
2022/11/19 03:35:25;;;;;;;55.55;25.88;;;-3.20;99.90;;;;;;2080388;28;20026;-71
2022/11/19 03:36:30;;;;;;;48.65;23.50;;;-3.20;99.90;;;;;;2073501;28;20022;-71
2022/11/19 03:37:33;;;;;;;44.05;22.73;;;-3.20;99.90;;;;;;2080551;28;20096;-72
2022/11/19 03:38:39;;;;;;;45.40;22.25;;;-3.20;99.90;;;;;;2080194;28;20021;-71
2022/11/19 03:39:42;;;;;;;39.25;20.45;;;-3.20;99.90;;;;;;2080951;28;20036;-70
2022/11/19 03:40:44;;;;;;;42.38;21.27;;;-3.20;99.90;;;;;;2080528;28;20022;-70
2022/11/19 03:41:48;;;;;;;44.50;21.58;;;-3.20;99.90;;;;;;2080966;28;20127;-71
2022/11/19 03:42:51;;;;;;;37.65;20.38;;;-3.20;99.90;;;;;;2081119;28;20025;-70
2022/11/19 03:44:17;;;;;;;39.97;20.88;;;-3.20;99.90;;;;;;2081053;28;20404;-71
2022/11/19 03:45:24;;;;;;;42.40;21.65;;;-3.30;99.90;;;;;;2081258;28;20029;-71
2022/11/19 03:46:26;;;;;;;46.80;22.63;;;-3.30;99.90;;;;;;2081638;28;20052;-70
2022/11/19 03:47:33;;;;;;;53.42;24.80;;;-3.30;99.90;;;;;;2081697;28;20260;-71
2022/11/19 03:48:36;;;;;;;51.50;25.45;;;-3.30;99.90;;;;;;2080812;28;20652;-71
2022/11/19 03:49:40;;;;;;;52.92;24.85;;;-3.30;99.90;;;;;;2080471;28;20063;-70
2022/11/19 03:51:13;;;;;;;47.35;24.30;;;-3.30;99.90;;;;;;2081203;28;20057;-70
2022/11/19 03:52:18;;;;;;;52.17;24.40;;;-3.30;99.90;;;;;;2081103;28;20676;-70
2022/11/19 03:53:19;;;;;;;49.33;23.90;;;-3.30;99.90;;;;;;2080663;28;20549;-71
2022/11/19 03:54:20;;;;;;;51.60;24.02;;;-3.30;99.90;;;;;;2080452;28;20534;-70
2022/11/19 03:55:29;;;;;;;46.80;23.85;;;-3.30;99.90;;;;;;2081056;28;20025;-70
2022/11/19 03:56:33;;;;;;;44.17;22.95;;;-3.40;99.90;;;;;;2082028;28;20047;-71
2022/11/19 03:57:34;;;;;;;42.00;22.20;;;-3.30;99.90;;;;;;2081387;28;20108;-71
2022/11/19 03:58:42;;;;;;;41.00;21.67;;;-3.40;99.90;;;;;;2081072;28;20499;-71
2022/11/19 03:59:43;;;;;;;37.83;20.65;;;-3.40;99.90;;;;;;2081402;28;20045;-71
2022/11/19 04:00:44;;;;;;;36.58;20.05;;;-3.40;99.90;;;;;;2073806;28;20037;-71
2022/11/19 04:01:49;;;;;;;38.20;20.92;;;-3.40;99.90;;;;;;2082008;28;20033;-70
2022/11/19 04:02:49;;;;;;;34.85;20.42;;;-3.40;99.90;;;;;;2081722;28;20029;-71
2022/11/19 04:05:09;;;;;;;32.97;18.60;;;-3.40;99.90;;;;;;2080196;28;20033;-70
2022/11/19 04:06:10;;;;;;;35.67;19.55;;;-3.40;99.90;;;;;;2080061;28;20040;-70
2022/11/19 04:07:19;;;;;;;30.98;18.05;;;-3.40;99.90;;;;;;2080551;28;20033;-70
2022/11/19 04:08:20;;;;;;;33.50;18.23;;;-3.40;99.90;;;;;;2080240;28;20041;-70
2022/11/19 04:09:20;;;;;;;30.15;17.50;;;-3.40;99.90;;;;;;2079995;28;20057;-70
2022/11/19 04:10:21;;;;;;;33.10;18.55;;;-3.40;99.90;;;;;;2080542;28;20076;-70
2022/11/19 04:11:22;;;;;;;31.23;17.63;;;-3.30;99.90;;;;;;2081235;28;20041;-71
2022/11/19 04:12:24;;;;;;;33.63;17.77;;;-3.30;99.90;;;;;;2080092;28;20109;-70
2022/11/19 04:13:24;;;;;;;32.55;17.27;;;-3.30;99.90;;;;;;2079941;28;20048;-70
2022/11/19 04:14:25;;;;;;;30.27;16.90;;;-3.40;99.90;;;;;;2084738;28;20064;-71
2022/11/19 04:15:26;;;;;;;30.08;17.25;;;-3.30;99.90;;;;;;2088580;28;20026;-70
2022/11/19 04:16:26;;;;;;;31.67;18.10;;;-3.30;99.90;;;;;;2088527;28;20029;-70
2022/11/19 04:17:27;;;;;;;30.42;17.40;;;-3.30;99.90;;;;;;2081826;28;20025;-70
2022/11/19 04:18:28;;;;;;;32.58;18.13;;;-3.40;99.90;;;;;;2080004;28;20071;-70
2022/11/19 04:19:29;;;;;;;34.85;18.33;;;-3.20;99.90;;;;;;2071765;28;20029;-70
2022/11/19 04:20:29;;;;;;;31.20;17.15;;;-3.20;99.90;;;;;;2071632;28;20117;-71
2022/11/19 04:21:30;;;;;;;31.75;17.42;;;-3.20;99.90;;;;;;2080142;28;20195;-70
2022/11/19 04:22:31;;;;;;;32.15;17.35;;;-3.20;99.90;;;;;;2080930;28;20037;-70
2022/11/19 04:23:31;;;;;;;31.55;17.45;;;-3.20;99.90;;;;;;2079674;28;20029;-70
2022/11/19 04:24:32;;;;;;;29.02;16.98;;;-3.20;99.90;;;;;;2079828;28;20368;-70
2022/11/19 04:25:33;;;;;;;29.30;16.48;;;-3.20;99.90;;;;;;2080246;28;20048;-70
2022/11/19 04:26:33;;;;;;;31.15;17.38;;;-3.30;99.90;;;;;;2079840;28;20026;-70
2022/11/19 04:27:34;;;;;;;29.50;16.85;;;-3.30;99.90;;;;;;2079921;28;20407;-71
2022/11/19 04:28:35;;;;;;;33.95;17.90;;;-3.30;99.90;;;;;;2079690;28;20033;-70
2022/11/19 04:29:35;;;;;;;32.35;17.40;;;-3.30;99.90;;;;;;2079732;28;20041;-70
2022/11/19 04:30:36;;;;;;;30.92;17.13;;;-3.30;99.90;;;;;;2080141;28;20474;-70
2022/11/19 04:31:37;;;;;;;29.38;17.02;;;-3.40;99.90;;;;;;2079604;28;20037;-70
2022/11/19 04:32:37;;;;;;;29.02;17.10;;;-3.40;99.90;;;;;;2079693;28;20025;-70
2022/11/19 04:33:38;;;;;;;30.10;17.08;;;-3.40;99.90;;;;;;2080356;28;20029;-70
2022/11/19 04:34:39;;;;;;;30.73;17.52;;;-3.40;99.90;;;;;;2071252;28;20037;-70
2022/11/19 04:35:44;;;;;;;31.02;17.35;;;-3.40;99.90;;;;;;2063430;28;20022;-71
2022/11/19 04:36:45;;;;;;;33.35;18.65;;;-3.40;99.90;;;;;;2079715;28;20123;-71
2022/11/19 04:37:45;;;;;;;32.42;18.23;;;-3.30;99.90;;;;;;2080497;28;20072;-70
2022/11/19 04:38:46;;;;;;;31.08;17.52;;;-3.20;99.90;;;;;;2079797;28;20199;-70
2022/11/19 04:39:46;;;;;;;32.60;18.52;;;-3.20;99.90;;;;;;2071600;28;20040;-69
2022/11/19 04:40:47;;;;;;;31.75;17.50;;;-3.20;99.90;;;;;;2079205;28;20124;-70
2022/11/19 04:41:48;;;;;;;31.48;17.05;;;-3.20;99.90;;;;;;2080238;28;20514;-70
2022/11/19 04:42:48;;;;;;;30.83;17.25;;;-3.30;99.90;;;;;;2080250;28;20145;-69
2022/11/19 04:43:49;;;;;;;29.48;17.45;;;-3.30;99.90;;;;;;2080092;28;20040;-70
2022/11/19 04:44:50;;;;;;;28.70;16.90;;;-3.30;99.90;;;;;;2079346;28;20064;-70
2022/11/19 04:45:51;;;;;;;31.58;17.35;;;-3.40;99.90;;;;;;2079410;28;20033;-70
2022/11/19 04:46:51;;;;;;;28.83;16.92;;;-3.40;99.90;;;;;;2080163;28;20130;-70
2022/11/19 04:47:52;;;;;;;31.15;17.85;;;-3.40;99.90;;;;;;2080140;28;20033;-70
2022/11/19 04:48:52;;;;;;;29.60;17.20;;;-3.40;99.90;;;;;;2080051;28;20041;-70
2022/11/19 04:49:53;;;;;;;32.03;17.05;;;-3.50;99.90;;;;;;2080174;28;20025;-70
2022/11/19 04:50:54;;;;;;;28.95;16.65;;;-3.50;99.90;;;;;;2079288;28;20033;-70
2022/11/19 04:51:54;;;;;;;30.70;17.27;;;-3.40;99.90;;;;;;2071420;28;20025;-70
2022/11/19 04:52:55;;;;;;;29.90;16.83;;;-3.50;99.90;;;;;;2079436;28;20577;-70
2022/11/19 04:53:56;;;;;;;27.88;16.08;;;-3.50;99.90;;;;;;2080051;28;20027;-71
2022/11/19 04:54:56;;;;;;;27.92;16.30;;;-3.50;99.90;;;;;;2079946;28;21023;-70
2022/11/19 04:55:57;;;;;;;29.70;16.98;;;-3.50;99.90;;;;;;2079779;28;20033;-70
2022/11/19 04:56:58;;;;;;;29.00;16.40;;;-3.50;99.90;;;;;;2081931;28;20025;-71
2022/11/19 04:57:59;;;;;;;28.38;16.60;;;-3.50;99.90;;;;;;2085697;28;20097;-71
2022/11/19 04:59:03;;;;;;;29.20;16.83;;;-3.50;99.90;;;;;;2087388;28;20045;-70
2022/11/19 05:00:05;;;;;;;30.25;16.83;;;-3.50;99.90;;;;;;2081080;28;20036;-70
2022/11/19 05:01:06;;;;;;;30.55;17.42;;;-3.50;99.90;;;;;;2080308;28;20559;-70
2022/11/19 05:02:07;;;;;;;29.92;17.10;;;-3.50;99.90;;;;;;2080305;28;20022;-70
2022/11/19 05:03:07;;;;;;;29.77;17.50;;;-3.50;99.90;;;;;;2081487;28;20052;-70
2022/11/19 05:04:08;;;;;;;30.27;17.05;;;-3.50;99.90;;;;;;2080856;28;20049;-70
2022/11/19 05:05:09;;;;;;;32.03;18.23;;;-3.50;99.90;;;;;;2080811;28;20695;-69
2022/11/19 05:06:10;;;;;;;32.13;17.77;;;-3.50;99.90;;;;;;2080224;28;20108;-71
2022/11/19 05:07:10;;;;;;;32.85;18.42;;;-3.50;99.90;;;;;;2080319;28;20583;-71
2022/11/19 05:08:11;;;;;;;29.98;17.75;;;-3.50;99.90;;;;;;2080153;28;20034;-71
2022/11/19 05:09:12;;;;;;;33.45;18.88;;;-3.50;99.90;;;;;;2080075;28;20116;-70
2022/11/19 05:10:12;;;;;;;36.70;19.08;;;-3.50;99.90;;;;;;2080214;28;20041;-70
2022/11/19 05:11:13;;;;;;;34.42;18.98;;;-3.50;99.90;;;;;;2079274;28;20063;-70
2022/11/19 05:12:14;;;;;;;34.67;19.60;;;-3.40;99.90;;;;;;2079502;28;20026;-71
2022/11/19 05:13:14;;;;;;;35.38;19.58;;;-3.30;99.90;;;;;;2071644;28;20048;-70
2022/11/19 05:14:15;;;;;;;33.10;18.65;;;-3.30;99.90;;;;;;2071426;28;20030;-71
2022/11/19 05:15:16;;;;;;;32.38;18.70;;;-3.30;99.90;;;;;;2080480;28;20033;-70
2022/11/19 05:16:17;;;;;;;32.63;18.30;;;-3.30;99.90;;;;;;2080644;28;20037;-70
2022/11/19 05:17:17;;;;;;;31.15;17.88;;;-3.30;99.90;;;;;;2082009;28;20060;-71
2022/11/19 05:18:18;;;;;;;33.15;18.25;;;-3.40;99.90;;;;;;2080723;28;20041;-70
2022/11/19 05:19:18;;;;;;;34.13;18.40;;;-3.40;99.90;;;;;;2080310;28;20030;-70
2022/11/19 05:20:19;;;;;;;30.27;17.48;;;-3.40;99.90;;;;;;2070557;28;20037;-70
2022/11/19 05:21:20;;;;;;;32.45;18.23;;;-3.40;99.90;;;;;;2071969;28;20026;-71
2022/11/19 05:22:21;;;;;;;32.33;17.80;;;-3.50;99.90;;;;;;2080350;28;20061;-71
2022/11/19 05:23:22;;;;;;;32.40;18.10;;;-3.40;99.90;;;;;;2079292;28;20041;-70
2022/11/19 05:24:23;;;;;;;30.70;17.50;;;-3.50;99.90;;;;;;2079356;28;20097;-71
2022/11/19 05:25:24;;;;;;;30.30;17.55;;;-3.50;99.90;;;;;;2079864;28;20029;-70
2022/11/19 05:26:25;;;;;;;30.88;18.13;;;-3.50;99.90;;;;;;2079402;28;20026;-71
2022/11/19 05:27:26;;;;;;;31.85;18.65;;;-3.50;99.90;;;;;;2079397;28;20056;-71
2022/11/19 05:28:26;;;;;;;33.10;18.10;;;-3.50;99.90;;;;;;2079993;28;20031;-70
2022/11/19 05:29:27;;;;;;;32.20;18.63;;;-3.50;99.90;;;;;;2080024;28;20036;-71
2022/11/19 05:30:28;;;;;;;31.30;17.75;;;-3.50;99.90;;;;;;2070843;28;20124;-71
2022/11/19 05:31:29;;;;;;;31.83;17.77;;;-3.50;99.90;;;;;;2070911;28;20026;-70
2022/11/19 05:32:30;;;;;;;33.40;18.08;;;-3.50;99.90;;;;;;2080206;28;20553;-71
2022/11/19 05:33:30;;;;;;;33.08;18.40;;;-3.50;99.90;;;;;;2080314;28;20052;-71
2022/11/19 05:34:31;;;;;;;30.67;18.00;;;-3.50;99.90;;;;;;2079686;28;20030;-72
2022/11/19 05:35:32;;;;;;;33.13;18.80;;;-3.50;99.90;;;;;;2080059;28;20029;-70
2022/11/19 05:36:32;;;;;;;27.73;16.92;;;-3.60;99.90;;;;;;2079877;28;20038;-71
2022/11/19 05:37:33;;;;;;;29.98;17.75;;;-3.60;99.90;;;;;;2079742;28;20032;-71